LPPS/PXO METAR and TAF weather

Enter ICAO airport designator
Station Type Date Time Source
LPPS METAR 2019/12/08 03:30 UTC NOAA

LPPS 080330Z 35004KT 320V020 9999 SCT014 SCT030 16/15 Q1029


Station Type Date Time Source
LPPS Decoded METAR 2019/12/08 03:30 UTC NOAA

Porto Santo, Portugal (LPPS) 33-04N 016-21W 82M
Dec 07, 2019 - 10:30 PM EST / 2019.12.08 0330 UTC
Wind: from the N (350 degrees) at 5 MPH (4 KT) (direction variable):0
Visibility: greater than 7 mile(s):0
Sky conditions: partly cloudy
Temperature: 60 F (16 C)
Dew Point: 59 F (15 C)
Relative Humidity: 93%
Pressure (altimeter): 30.39 in. Hg (1029 hPa)
ob: LPPS 080330Z 35004KT 320V020 9999 SCT014 SCT030 16/15 Q1029
cycle: 3

Station Type Date Time Source
LPPS TAF 2019/12/07 18:18 UTC NOAA

TAF LPPS 071700Z 0718/0824 03012KT 9999 SCT015
TEMPO 0718/0824 FEW015 BKN030
BECMG 0800/0803 36010KT PROB30
TEMPO 0800/0812 6000 -RA BKN012

Example: see airport list